• Join FlightAware (Why Join?)
  • Login
  • US Flag 
06:18PM EST


 

Airport Tracker/Info


-or-


 

Live Flight TrackerFlight Track Log ✈ DLH417 ✈ 20-Jun-2013 ✈ KIAD - EDDF / FRA

Flight Track Log - Related Links

Times and Time Zones

All times are in EDT time to prevent confusion due to time zone crossing. See the DLH417 flight status page for this flight to view local times or setup timezone preferences in your user account.

Time Position Orientation Groundspeed Altitude Reporting Facility
EDT Latitude Longitude Course Direction KTS MPH feet Rate Location/Type
04:13PM 38.9130 -77.5060 307° West 214 246 1,400  Level FlightAware
04:13PM 38.9250 -77.5240 311° West 227 261 1,600 1,320 Climbing FlightAware
04:13PM 38.9500 -77.5610 311° West 264 304 2,500 2,040 Climbing FlightAware
04:14PM 38.9680 -77.5860 313° West 270 311 3,300 2,640 Climbing FlightAware
04:14PM 38.9940 -77.6260 310° West 273 314 4,800 2,700 Climbing FlightAware
04:15PM 39.0230 -77.6530 324° Northwest 270 311 6,100 2,460 Climbing FlightAware
04:15PM 39.0690 -77.6310 20° North 278 320 7,700 1,920 Climbing FlightAware
04:16PM 39.0990 -77.5960 42° Northeast 286 329 8,400 1,080 Climbing FlightAware
04:16PM 39.1250 -77.5680 40° Northeast 294 338 8,700 420 Climbing FlightAware
04:17PM 39.1390 -77.5520 42° Northeast 293 337 8,700  Level FlightAware
04:17PM 39.1690 -77.5190 40° Northeast 289 333 8,700  Level FlightAware
04:17PM 39.1830 -77.4860 61° Northeast 289 333 8,700  Level FlightAware
04:18PM 39.2010 -77.4350 65° Northeast 292 336 8,700  Level FlightAware
04:18PM 39.2170 -77.3870 67° East 292 336 8,700 60 Level FlightAware
04:19PM 39.2310 -77.3480 65° Northeast 292 336 8,800 600 Climbing FlightAware
04:19PM 39.2480 -77.2980 66° East 292 336 9,300 780 Climbing FlightAware
04:20PM 39.2700 -77.2340 66° East 293 337 9,700 300 Climbing FlightAware
04:21PM 39.2870 -77.1860 65° Northeast 293 337 9,700 300 Level FlightAware
04:21PM 39.3010 -77.1450 66° East 306 352 10,000 660 Climbing FlightAware
04:22PM 39.3290 -77.0640 66° East 354 407 10,500 900 Climbing FlightAware
04:22PM 39.3210 -76.9780 97° East 380 437 11,300 1,440 Climbing FlightAware
04:23PM 39.2920 -76.8810 111° Southeast 394 453 12,600 1,740 Climbing FlightAware
04:24PM 39.2660 -76.7950 111° Southeast 403 464 13,800 1,740 Climbing FlightAware
04:24PM 39.2430 -76.7180 111° Southeast 409 471 14,900 1,980 Climbing FlightAware
04:25PM 39.2193 -76.6412 112° Southeast 410 472 16,000 1,800 Climbing FlightAware ADS-B
04:25PM 39.1973 -76.5692 111° Southeast 418 481 16,700 1,380 Climbing FlightAware ADS-B
04:26PM 39.1748 -76.4952 111° Southeast 430 495 17,500 1,680 Climbing FlightAware ADS-B
04:26PM 39.1513 -76.4190 112° Southeast 434 499 18,500 1,620 Climbing FlightAware ADS-B
04:27PM 39.1256 -76.3353 112° Southeast 445 512 19,300 1,320 Climbing FlightAware ADS-B
04:28PM 39.1002 -76.2525 112° Southeast 455 524 20,000 1,320 Climbing FlightAware ADS-B
04:28PM 39.0813 -76.1887 111° Southeast 463 533 20,600 1,560 Climbing FlightAware ADS-B
04:29PM 39.0633 -76.1028 105° East 464 534 21,500 1,620 Climbing FlightAware ADS-B
04:29PM 39.0574 -76.0602 100° East 466 536 21,900 1,380 Climbing FlightAware ADS-B
04:29PM 39.0514 -75.9867 96° East 470 541 22,500 1,560 Climbing FlightAware ADS-B
04:30PM 39.0505 -75.9325 91° East 469 540 23,100 1,800 Climbing FlightAware ADS-B
04:30PM 39.0542 -75.8399 87° East 469 540 24,100 1,680 Climbing FlightAware ADS-B
04:31PM 39.0577 -75.7545 87° East 469 540 24,900 1,320 Climbing FlightAware ADS-B
04:31PM 39.0614 -75.6645 87° East 472 543 25,500 1,080 Climbing FlightAware ADS-B
04:32PM 39.0654 -75.5757 87° East 478 550 26,100 1,080 Climbing FlightAware ADS-B
04:32PM 39.0690 -75.5268 85° East 479 551 26,400 1,200 Climbing FlightAware ADS-B
04:32PM 39.0768 -75.4910 74° East 479 551 26,700 1,020 Climbing FlightAware ADS-B
04:33PM 39.0983 -75.4351 64° Northeast 480 552 27,000 840 Climbing FlightAware ADS-B
04:33PM 39.1408 -75.3618 53° Northeast 481 554 27,500 1,080 Climbing FlightAware ADS-B
04:34PM 39.1833 -75.2879 53° Northeast 486 559 28,200 1,380 Climbing FlightAware ADS-B
04:34PM 39.2265 -75.2129 53° Northeast 480 552 29,000 1,500 Climbing FlightAware ADS-B
04:35PM 39.2675 -75.1424 53° Northeast 477 549 29,800 1,380 Climbing FlightAware ADS-B
04:35PM 39.3091 -75.0709 53° Northeast 474 545 30,500 1,320 Climbing FlightAware ADS-B
04:36PM 39.3513 -74.9980 53° Northeast 473 544 31,200 1,200 Climbing FlightAware ADS-B
04:36PM 39.3926 -74.9262 53° Northeast 472 543 31,800 1,020 Climbing FlightAware ADS-B
04:37PM 39.4337 -74.8549 53° Northeast 473 544 32,300 840 Climbing FlightAware ADS-B
04:37PM 39.4729 -74.7867 53° Northeast 473 544 32,700 840 Climbing FlightAware ADS-B
04:38PM 39.5164 -74.7111 53° Northeast 473 544 33,200 960 Climbing FlightAware ADS-B
04:38PM 39.5617 -74.6320 53° Northeast 470 541 33,800 1,020 Climbing FlightAware ADS-B
04:39PM 39.6044 -74.5571 53° Northeast 466 536 34,400 960 Climbing FlightAware ADS-B
04:40PM 39.6462 -74.4837 53° Northeast 463 533 34,900 540 Climbing FlightAware ADS-B
04:40PM 39.6855 -74.4146 54° Northeast 465 535 35,000 60 Climbing FlightAware ADS-B
04:41PM 39.7252 -74.3443 54° Northeast 477 549 35,000  Level FlightAware ADS-B
04:41PM 39.7672 -74.2703 54° Northeast 482 555 35,000  Level FlightAware ADS-B
04:42PM 39.8066 -74.2003 54° Northeast 479 551 35,000  Level FlightAware ADS-B
04:42PM 39.8588 -74.1076 54° Northeast 479 551 35,000  Level FlightAware ADS-B
04:43PM 39.8992 -74.0356 54° Northeast 479 551 35,000  Level FlightAware ADS-B
04:43PM 39.9452 -73.9532 54° Northeast 479 551 35,000  Level FlightAware ADS-B
04:44PM 39.9860 -73.8806 54° Northeast 478 550 35,000  Level FlightAware ADS-B
04:44PM 40.0272 -73.8065 54° Northeast 478 550 35,000  Level FlightAware ADS-B
04:45PM 40.0680 -73.7320 54° Northeast 477 549 35,000  Level FlightAware
04:46PM 40.1315 -73.6187 54° Northeast 477 549 35,000  Level FlightAware ADS-B
04:46PM 40.1804 -73.5301 54° Northeast 478 550 35,000  Level FlightAware ADS-B
04:47PM 40.2204 -73.4572 54° Northeast 478 550 35,000  Level FlightAware ADS-B
04:47PM 40.2450 -73.4085 56° Northeast 480 552 35,000  Level FlightAware ADS-B
04:48PM 40.2834 -73.3301 57° Northeast 482 555 35,000  Level FlightAware ADS-B
04:48PM 40.3205 -73.2554 57° Northeast 482 555 35,000  Level FlightAware ADS-B
04:49PM 40.3736 -73.1488 57° Northeast 483 556 35,000  Level FlightAware ADS-B
04:50PM 40.4150 -73.0659 57° Northeast 483 556 35,000  Level FlightAware ADS-B
04:50PM 40.4518 -72.9916 57° Northeast 484 557 35,000  Level FlightAware ADS-B
04:51PM 40.4907 -72.9132 57° Northeast 485 558 35,000  Level FlightAware ADS-B
04:51PM 40.5323 -72.8289 57° Northeast 486 559 35,000  Level FlightAware ADS-B
04:52PM 40.5702 -72.7523 57° Northeast 488 562 35,000  Level FlightAware ADS-B
04:52PM 40.6118 -72.6678 57° Northeast 490 564 35,000  Level FlightAware ADS-B
04:53PM 40.6498 -72.5901 57° Northeast 491 565 35,000  Level FlightAware ADS-B
04:53PM 40.6930 -72.5019 57° Northeast 492 566 35,000  Level FlightAware ADS-B
04:54PM 40.7509 -72.3830 57° Northeast 494 568 35,000  Level FlightAware ADS-B
04:55PM 40.7913 -72.3000 57° Northeast 493 567 35,000  Level FlightAware ADS-B
04:55PM 40.8399 -72.1997 57° Northeast 492 566 35,000  Level FlightAware ADS-B
04:56PM 40.8859 -72.1044 57° Northeast 492 566 35,000  Level FlightAware ADS-B
04:57PM 40.9229 -72.0276 57° Northeast 493 567 35,000  Level FlightAware ADS-B
04:57PM 40.9630 -71.9440 58° Northeast 492 566 35,000  Level FlightAware
04:58PM 41.0190 -71.8270 58° Northeast 490 564 35,000  Level FlightAware
04:58PM 41.0406 -71.7819 58° Northeast 492 566 35,000  Level FlightAware ADS-B
04:59PM 41.0795 -71.7003 58° Northeast 490 564 35,000  Level FlightAware ADS-B
04:59PM 41.1160 -71.6230 58° Northeast 488 562 35,000  Level FlightAware
04:59PM 41.1366 -71.5802 57° Northeast 490 564 35,000  Level FlightAware ADS-B
05:00PM 41.1700 -71.5090 58° Northeast 488 562 35,000  Level FlightAware
05:01PM 41.2350 -71.3720 58° Northeast 487 560 35,000  Level FlightAware
05:02PM 41.2860 -71.2640 58° Northeast 486 559 35,000  Level FlightAware
05:02PM 41.3390 -71.1500 58° Northeast 487 560 35,000  Level FlightAware
05:03PM 41.3860 -71.0480 58° Northeast 486 559 35,000  Level FlightAware
05:04PM 41.4300 -70.9540 58° Northeast 486 559 35,000  Level FlightAware
05:04PM 41.4840 -70.8370 58° Northeast 486 559 35,000  Level FlightAware
05:05PM 41.5330 -70.7320 58° Northeast 487 560 35,000  Level FlightAware
05:06PM 41.5750 -70.6410 58° Northeast 487 560 35,000  Level FlightAware
05:06PM 41.5970 -70.5940 58° Northeast 487 560 35,000  Level FlightAware
05:07PM 41.6370 -70.5070 58° Northeast 487 560 35,000  Level FlightAware
05:08PM 41.7450 -70.2700 59° Northeast 484 557 35,000  Level FlightAware
05:10PM 41.8420 -70.0540 59° Northeast 483 556 35,000  Level FlightAware
05:10PM 41.8910 -69.9450 59° Northeast 484 557 35,000  Level FlightAware
05:10PM 41.9030 -69.9190 58° Northeast 484 557 35,000  Level FlightAware
05:11PM 41.9840 -69.7360 59° Northeast 485 558 35,000  Level FlightAware
05:12PM 42.0250 -69.6450 59° Northeast 484 557 35,000  Level FlightAware
05:13PM 42.0720 -69.5400 59° Northeast 484 557 35,000  Level FlightAware
05:14PM 42.1220 -69.4250 60° Northeast 484 557 35,000  Level FlightAware
05:14PM 42.1740 -69.3080 59° Northeast 483 556 35,000  Level FlightAware
05:15PM 42.2260 -69.1910 59° Northeast 483 556 35,000  Level FlightAware
05:16PM 42.2710 -69.0870 60° Northeast 485 558 35,000  Level FlightAware
05:16PM 42.3130 -68.9910 59° Northeast 486 559 35,000 60 Level FlightAware
05:17PM 42.3700 -68.8600 59° Northeast 488 562 35,100 300 Climbing FlightAware
05:18PM 42.4160 -68.7520 60° Northeast 489 563 35,500 780 Climbing FlightAware
05:18PM 42.4630 -68.6440 59° Northeast 486 559 36,200 780 Climbing FlightAware
05:19PM 42.5110 -68.5310 60° Northeast 488 562 36,600 360 Climbing FlightAware
05:20PM 42.5760 -68.3810 59° Northeast 490 564 36,800 180 Climbing FlightAware
05:21PM 42.6090 -68.3020 60° Northeast 490 564 36,900 60 Climbing FlightAware
05:22PM 42.6580 -68.1870 60° Northeast 490 564 36,900  Level FlightAware
05:22PM 42.6920 -68.1070 60° Northeast 490 564 36,900  Level FlightAware
05:23PM 42.7390 -67.9960 60° Northeast 490 564 36,900  Level FlightAware
05:24PM 42.7720 -67.9190 60° Northeast 490 564 36,900 60 Level FlightAware
05:24PM 42.8580 -67.7090 61° Northeast 495 570 37,000 60 Climbing FlightAware
05:25PM 42.8880 -67.6390 60° Northeast 496 571 37,000  Level FlightAware
05:26PM 42.9550 -67.4780 60° Northeast 497 572 37,000  Level FlightAware
05:27PM 43.0100 -67.3450 60° Northeast 497 572 37,000  Level FlightAware
05:27PM 43.0560 -67.2360 60° Northeast 497 572 37,000  Level FlightAware
05:28PM 43.1110 -67.0960 62° Northeast 497 572 37,000  Level FlightAware
05:29PM 43.1700 -66.9500 61° Northeast 497 572 37,000  Level FlightAware
05:30PM 43.2040 -66.8660 61° Northeast 497 572 37,000  Level FlightAware
05:30PM 43.2650 -66.7090 62° Northeast 495 570 37,000  Level FlightAware
05:31PM 43.3140 -66.5820 62° Northeast 497 572 37,000  Level FlightAware
05:32PM 43.3730 -66.4320 62° Northeast 501 577 37,000  Level FlightAware
05:33PM 43.4230 -66.3020 62° Northeast 501 577 37,000  Level FlightAware
05:33PM 43.4620 -66.2000 62° Northeast 500 575 37,000  Level FlightAware
05:34PM 43.5110 -66.0730 62° Northeast 502 578 37,000  Level FlightAware
05:35PM 43.5560 -65.9560 62° Northeast 506 582 37,000  Level FlightAware
05:36PM 43.6210 -65.7850 62° Northeast 508 585 37,000  Level FlightAware
05:36PM 43.6700 -65.6550 62° Northeast 509 586 37,000  Level FlightAware
05:37PM 43.7090 -65.5530 62° Northeast 508 585 37,000  Level FlightAware
05:38PM 43.7570 -65.4260 62° Northeast 508 585 37,000  Level FlightAware
05:39PM 43.8010 -65.3080 63° Northeast 508 585 37,000  Level FlightAware
05:39PM 43.8480 -65.1790 63° Northeast 508 585 37,000  Level FlightAware
05:40PM 43.8930 -65.0580 63° Northeast 509 586 37,000  Level FlightAware
05:41PM 43.9360 -64.9420 63° Northeast 509 586 37,000  Level FlightAware
05:41PM 43.9850 -64.8080 63° Northeast 511 588 37,000  Level FlightAware
05:42PM 44.0230 -64.7030 63° Northeast 510 587 37,000  Level FlightAware
05:43PM 44.1030 -64.4840 63° Northeast 513 590 37,000  Level FlightAware
05:44PM 44.1490 -64.3570 63° Northeast 511 588 37,000  Level FlightAware
05:45PM 44.1840 -64.2580 64° Northeast 515 593 37,000  Level FlightAware
05:46PM 44.2440 -64.0930 63° Northeast 515 593 37,000  Level FlightAware
05:46PM 44.2950 -63.9500 63° Northeast 515 593 37,000  Level FlightAware
05:47PM 44.3380 -63.8280 64° Northeast 516 594 37,000  Level FlightAware
05:48PM 44.3850 -63.6930 64° Northeast 516 594 37,000  Level FlightAware
05:48PM 44.4310 -63.5620 64° Northeast 517 595 37,000  Level FlightAware
05:49PM 44.4690 -63.4530 64° Northeast 518 596 37,000  Level FlightAware
05:50PM 44.5500 -63.2200 64° Northeast 518 596 37,000  Level FlightAware
05:51PM 44.5930 -63.0950 64° Northeast 519 597 37,000  Level FlightAware
05:52PM 44.6340 -62.9770 64° Northeast 520 598 37,000  Level FlightAware
05:53PM 44.7000 -62.7840 64° Northeast 524 603 37,000  Level FlightAware
05:53PM 44.7370 -62.6760 64° Northeast 524 603 37,000  Level FlightAware
05:54PM 44.7700 -62.5820 64° Northeast 524 603 37,000  Level FlightAware
05:55PM 44.8250 -62.4130 65° Northeast 37,000  Level FlightAware
05:55PM 44.8500 -62.2500 65° Northeast 530 610 37,000  Level Moncton Center
05:56PM 44.8833 -62.1333 68° East 530 610 37,000  Level Gander Center
06:02PM 45.2940 -60.9760 68° East 538 619 37,000  Level FlightAware
06:03PM 45.3370 -60.8400 66° East 538 619 37,000  Level FlightAware
06:04PM 45.3790 -60.7060 66° East 540 621 37,000  Level FlightAware
06:04PM 45.4200 -60.5760 66° East 540 621 37,000  Level FlightAware
06:05PM 45.4650 -60.4310 66° East 542 624 37,000  Level FlightAware
06:06PM 45.5080 -60.2900 66° East 540 621 37,000  Level FlightAware
06:06PM 45.5550 -60.1400 66° East 541 623 37,000  Level FlightAware
06:07PM 45.5950 -60.0070 67° East 541 623 37,000  Level FlightAware
06:08PM 45.6310 -59.8910 66° East 541 623 37,000  Level FlightAware
06:09PM 45.6770 -59.7390 67° East 541 623 37,000  Level FlightAware
06:09PM 45.7160 -59.6090 67° East 542 624 37,000  Level FlightAware
06:10PM 45.7580 -59.4710 66° East 543 625 37,000  Level FlightAware
06:10PM 45.7930 -59.3510 67° East 546 628 37,000  Level FlightAware
06:11PM 45.8420 -59.1860 67° East 547 629 37,000  Level FlightAware
06:12PM 45.8760 -59.0730 67° East 546 628 37,000  Level FlightAware
06:13PM 45.9250 -58.9050 67° East 546 628 37,000  Level FlightAware
06:13PM 45.9630 -58.7750 67° East 546 628 37,000  Level FlightAware
06:14PM 46.0060 -58.6250 68° East 546 628 37,000  Level FlightAware
06:15PM 46.0470 -58.4830 67° East 547 629 37,000  Level FlightAware
06:15PM 46.0850 -58.3520 67° East 549 632 37,000  Level FlightAware
06:16PM 46.1280 -58.2000 68° East 552 635 37,000  Level FlightAware
06:17PM 46.1680 -58.0590 68° East 554 638 37,000  Level FlightAware
06:18PM 46.2100 -57.9080 68° East 556 640 37,000  Level FlightAware
06:19PM 46.2560 -57.7420 68° East 558 642 37,000  Level FlightAware
06:19PM 46.2870 -57.6330 68° East 558 642 37,000  Level FlightAware
06:20PM 46.3470 -57.4150 68° East 564 649 37,000  Level FlightAware
06:21PM 46.3780 -57.3020 68° East 565 650 37,000  Level FlightAware
06:22PM 46.4590 -57.0040 68° East 565 650 37,000  Level FlightAware
06:23PM 46.5010 -56.8470 69° East 565 650 37,000  Level FlightAware
06:23PM 46.5410 -56.7000 68° East 565 650 37,000  Level FlightAware
06:24PM 46.5780 -56.5590 69° East 565 650 37,000  Level FlightAware
06:25PM 46.6160 -56.4160 69° East 565 650 37,000  Level FlightAware
06:26PM 46.6580 -56.2440 70° East 563 648 37,000  Level FlightAware
06:26PM 46.6810 -56.1500 70° East 564 649 37,000  Level FlightAware
06:27PM 46.7200 -55.9940 70° East 568 654 37,000  Level FlightAware
06:27PM 46.7580 -55.8380 70° East 574 661 37,000  Level FlightAware
06:28PM 46.7910 -55.7040 70° East 580 667 37,000  Level FlightAware
06:29PM 46.8330 -55.5270 71° East 582 670 37,000  Level FlightAware
06:29PM 46.8670 -55.3860 71° East 583 671 37,000  Level FlightAware
06:30PM 46.8900 -55.2900 71° East 583 671 37,000  Level FlightAware
06:31PM 46.9310 -55.1190 71° East 585 673 37,000  Level FlightAware
06:31PM 46.9660 -54.9690 71° East 587 676 37,000  Level FlightAware
06:32PM 47.0030 -54.8090 71° East 588 677 37,000  Level FlightAware
06:33PM 47.0400 -54.6490 71° East 590 679 37,000  Level FlightAware
06:34PM 47.0790 -54.4790 71° East 593 682 37,000  Level FlightAware
06:34PM 47.1160 -54.3190 71° East 595 685 37,000  Level FlightAware
06:35PM 47.1550 -54.1470 72° East 597 687 37,000  Level FlightAware
06:36PM 47.2140 -53.8820 72° East 596 686 37,000  Level FlightAware
06:37PM 47.2490 -53.7270 72° East 597 687 37,000  Level FlightAware
06:37PM 47.2820 -53.5730 72° East 596 686 37,000  Level FlightAware
06:38PM 47.3220 -53.3930 72° East 596 686 37,000  Level FlightAware
06:39PM 47.3560 -53.2350 72° East 594 684 37,000  Level FlightAware
06:39PM 47.3830 -53.1100 72° East 595 685 37,000  Level FlightAware
06:40PM 47.4230 -52.9190 73° East 593 682 37,000  Level FlightAware
06:41PM 47.4600 -52.7490 72° East 592 681 37,000  Level FlightAware
06:42PM 47.4890 -52.6110 73° East 592 681 37,000  Level FlightAware
06:42PM 47.5160 -52.4790 73° East 592 681 37,000  Level FlightAware
06:43PM 47.5490 -52.3220 73° East 590 679 37,000  Level FlightAware
06:44PM 47.5830 -52.1520 73° East 591 680 37,000  Level FlightAware
06:44PM 47.6130 -52.0070 73° East 591 680 37,000  Level FlightAware
06:45PM 47.6440 -51.8530 73° East 592 681 37,000  Level FlightAware
06:46PM 47.6820 -51.6650 73° East 594 684 37,000  Level FlightAware
06:46PM 47.7140 -51.5040 73° East 594 684 37,000  Level FlightAware
06:47PM 47.7440 -51.3520 74° East 593 682 37,000  Level FlightAware
06:48PM 47.7750 -51.1990 73° East 593 682 37,000  Level FlightAware
06:48PM 47.8000 -51.0760 73° East 593 682 37,000  Level FlightAware
06:49PM 47.8310 -50.9230 73° East 593 682 37,000  Level FlightAware
06:50PM 47.8570 -50.7970 73° East 593 682 37,000  Level FlightAware
06:51PM 47.8890 -50.6410 73° East 593 682 37,000  Level FlightAware
06:51PM 47.9130 -50.5240 73° East 593 682 37,000  Level FlightAware
06:52PM 47.9450 -50.3680 73° East 593 682 37,000  Level FlightAware
06:53PM 47.9720 -50.2350 73° East 593 682 37,000  Level FlightAware
06:53PM 48.0040 -50.0780 73° East 593 682 37,000  Level FlightAware
06:54PM 48.0280 -49.9650 72° East 593 682 37,000  Level FlightAware
06:55PM 48.0600 -49.8080 73° East 593 682 37,000  Level FlightAware
06:55PM 48.0910 -49.6540 73° East 593 682 37,000  Level FlightAware
06:56PM 48.1240 -49.4910 73° East 593 682 37,000  Level FlightAware
06:57PM 48.1490 -49.3700 73° East 593 682 37,000  Level FlightAware
06:58PM 48.2667 -48.7500 73° East 590 679 37,000  Level Gander Center
06:59PM 48.3333 -48.5000 68° East 590 679 37,000  Level Gander Center
07:00PM 48.3833 -48.2833 71° East 600 690 37,000  Level Gander Center
07:01PM 48.4167 -48.0167 79° East 590 679 37,000  Level Gander Center
07:02PM 48.4833 -47.8000 65° Northeast 600 690 37,000  Level Gander Center
07:03PM 48.5333 -47.5500 73° East 600 690 37,000  Level Gander Center
07:04PM 48.5833 -47.3167 72° East 600 690 37,000  Level Gander Center
07:05PM 48.6500 -47.0833 67° East 600 690 37,000  Level Gander Center
07:06PM 48.7000 -46.8500 72° East 600 690 37,000  Level Gander Center
07:07PM 48.7333 -46.6333 77° East 600 690 37,000  Level Gander Center
07:09PM 48.8362 -46.3690 59° Northeast  Level FlightAware Approximate
07:16PM 49.1386 -44.9297 72° East  Level FlightAware Approximate
07:17PM 49.1794 -44.7231 73° East  Level FlightAware Approximate
07:18PM 49.2198 -44.5162 73° East  Level FlightAware Approximate
07:19PM 49.2598 -44.3089 73° East  Level FlightAware Approximate
07:20PM 49.2994 -44.1013 74° East  Level FlightAware Approximate
07:21PM 49.3387 -43.8934 74° East  Level FlightAware Approximate
07:22PM 49.3763 -43.6846 75° East  Level FlightAware Approximate
07:23PM 49.4129 -43.4752 75° East  Level FlightAware Approximate
07:24PM 49.4491 -43.2655 75° East  Level FlightAware Approximate
07:25PM 49.4849 -43.0554 75° East  Level FlightAware Approximate
07:26PM 49.5204 -42.8451 75° East  Level FlightAware Approximate
07:27PM 49.5555 -42.6345 76° East  Level FlightAware Approximate
07:28PM 49.5924 -42.4244 74° East  Level FlightAware Approximate
07:29PM 49.6300 -42.2145 74° East  Level FlightAware Approximate
07:30PM 49.6671 -42.0043 75° East  Level FlightAware Approximate
07:31PM 49.7040 -41.7937 75° East  Level FlightAware Approximate
07:32PM 49.7404 -41.5829 75° East  Level FlightAware Approximate
07:33PM 49.7764 -41.3717 75° East  Level FlightAware Approximate
07:34PM 49.8121 -41.1601 75° East  Level FlightAware Approximate
07:35PM 49.8474 -40.9483 75° East  Level FlightAware Approximate
07:36PM 49.8823 -40.7362 76° East  Level FlightAware Approximate
07:37PM 49.9168 -40.5238 76° East  Level FlightAware Approximate
07:38PM 49.9509 -40.3110 76° East  Level FlightAware Approximate
07:39PM 49.9846 -40.0980 76° East  Level FlightAware Approximate
07:40PM 50.0266 -39.8887 70° East  Level FlightAware Approximate
07:41PM 50.0755 -39.6826 70° East  Level FlightAware Approximate
07:42PM 50.1240 -39.4760 70° East  Level FlightAware Approximate
07:43PM 50.1722 -39.2690 70° East  Level FlightAware Approximate
07:44PM 50.2200 -39.0616 70° East  Level FlightAware Approximate
07:45PM 50.2674 -38.8538 70° East  Level FlightAware Approximate
07:46PM 50.3160 -38.6464 69° East  Level FlightAware Approximate
07:47PM 50.3651 -38.4392 70° East  Level FlightAware Approximate
07:48PM 50.4138 -38.2314 70° East  Level FlightAware Approximate
07:49PM 50.4622 -38.0233 70° East  Level FlightAware Approximate
07:50PM 50.5102 -37.8147 70° East  Level FlightAware Approximate
07:51PM 50.5578 -37.6057 70° East  Level FlightAware Approximate
07:52PM 50.6054 -37.3965 70° East  Level FlightAware Approximate
07:53PM 50.6526 -37.1869 70° East  Level FlightAware Approximate
07:54PM 50.6995 -36.9768 71° East  Level FlightAware Approximate
07:55PM 50.7460 -36.7664 71° East  Level FlightAware Approximate
07:56PM 50.7922 -36.5555 71° East  Level FlightAware Approximate
07:57PM 50.8379 -36.3442 71° East  Level FlightAware Approximate
07:58PM 50.8833 -36.1325 71° East  Level FlightAware Approximate
07:59PM 50.9283 -35.9204 71° East  Level FlightAware Approximate
08:00PM 50.9729 -35.7079 71° East  Level FlightAware Approximate
08:01PM 51.0171 -35.4949 72° East  Level FlightAware Approximate
08:02PM 51.0609 -35.2816 72° East  Level FlightAware Approximate
08:03PM 51.1043 -35.0679 72° East  Level FlightAware Approximate
08:04PM 51.1474 -34.8537 72° East  Level FlightAware Approximate
08:05PM 51.1900 -34.6392 72° East  Level FlightAware Approximate
08:06PM 51.2323 -34.4243 72° East  Level FlightAware Approximate
08:07PM 51.2741 -34.2090 73° East  Level FlightAware Approximate
08:08PM 51.3156 -33.9933 73° East  Level FlightAware Approximate
08:09PM 51.3567 -33.7772 73° East  Level FlightAware Approximate
08:10PM 51.3973 -33.5607 73° East  Level FlightAware Approximate
08:11PM 51.4376 -33.3438 73° East  Level FlightAware Approximate
08:12PM 51.4775 -33.1265 74° East  Level FlightAware Approximate
08:13PM 51.5169 -32.9089 74° East  Level FlightAware Approximate
08:14PM 51.5560 -32.6909 74° East  Level FlightAware Approximate
08:15PM 51.5947 -32.4725 74° East  Level FlightAware Approximate
08:16PM 51.6329 -32.2538 74° East  Level FlightAware Approximate
08:17PM 51.6708 -32.0347 74° East  Level FlightAware Approximate
08:18PM 51.7082 -31.8152 75° East  Level FlightAware Approximate
08:19PM 51.7453 -31.5954 75° East  Level FlightAware Approximate
08:20PM 51.7819 -31.3752 75° East  Level FlightAware Approximate
08:21PM 51.8181 -31.1546 75° East  Level FlightAware Approximate
08:22PM 51.8539 -30.9337 75° East  Level FlightAware Approximate
08:23PM 51.8893 -30.7124 75° East  Level FlightAware Approximate
08:24PM 51.9242 -30.4908 76° East  Level FlightAware Approximate
08:25PM 51.9588 -30.2689 76° East  Level FlightAware Approximate
08:26PM 51.9929 -30.0466 76° East  Level FlightAware Approximate
08:27PM 52.0255 -29.8236 77° East  Level FlightAware Approximate
08:28PM 52.0573 -29.6001 77° East  Level FlightAware Approximate
08:29PM 52.0888 -29.3762 77° East  Level FlightAware Approximate
08:30PM 52.1198 -29.1521 77° East  Level FlightAware Approximate
08:31PM 52.1504 -28.9277 77° East  Level FlightAware Approximate
08:32PM 52.1805 -28.7029 78° East  Level FlightAware Approximate
08:33PM 52.2103 -28.4779 78° East  Level FlightAware Approximate
08:34PM 52.2396 -28.2525 78° East  Level FlightAware Approximate
08:35PM 52.2685 -28.0269 78° East  Level FlightAware Approximate
08:36PM 52.2969 -27.8009 78° East  Level FlightAware Approximate
08:37PM 52.3249 -27.5747 78° East  Level FlightAware Approximate
08:38PM 52.3525 -27.3482 79° East  Level FlightAware Approximate
08:39PM 52.3796 -27.1214 79° East  Level FlightAware Approximate
08:40PM 52.4063 -26.8943 79° East  Level FlightAware Approximate
08:41PM 52.4326 -26.6670 79° East  Level FlightAware Approximate
08:42PM 52.4585 -26.4394 79° East  Level FlightAware Approximate
08:43PM 52.4839 -26.2115 80° East  Level FlightAware Approximate
08:44PM 52.5088 -25.9834 80° East  Level FlightAware Approximate
08:45PM 52.5334 -25.7550 80° East  Level FlightAware Approximate
08:46PM 52.5575 -25.5264 80° East  Level FlightAware Approximate
08:47PM 52.5811 -25.2975 80° East  Level FlightAware Approximate
08:48PM 52.6043 -25.0683 80° East  Level FlightAware Approximate
08:49PM 52.6271 -24.8389 81° East  Level FlightAware Approximate
08:50PM 52.6494 -24.6093 81° East  Level FlightAware Approximate
08:51PM 52.6712 -24.3795 81° East  Level FlightAware Approximate
08:52PM 52.6927 -24.1494 81° East  Level FlightAware Approximate
08:53PM 52.7137 -23.9191 81° East  Level FlightAware Approximate
08:54PM 52.7342 -23.6886 82° East  Level FlightAware Approximate
08:55PM 52.7543 -23.4578 82° East  Level FlightAware Approximate
08:56PM 52.7739 -23.2269 82° East  Level FlightAware Approximate
08:57PM 52.7931 -22.9958 82° East  Level FlightAware Approximate
08:58PM 52.8119 -22.7644 82° East  Level FlightAware Approximate
08:59PM 52.8302 -22.5329 82° East  Level FlightAware Approximate
09:00PM 52.8480 -22.3011 83° East  Level FlightAware Approximate
09:01PM 52.8654 -22.0692 83° East  Level FlightAware Approximate
09:02PM 52.8823 -21.8371 83° East  Level FlightAware Approximate
09:03PM 52.8988 -21.6048 83° East  Level FlightAware Approximate
09:04PM 52.9148 -21.3723 83° East  Level FlightAware Approximate
09:05PM 52.9304 -21.1397 84° East  Level FlightAware Approximate
09:06PM 52.9455 -20.9069 84° East  Level FlightAware Approximate
09:07PM 52.9602 -20.6739 84° East  Level FlightAware Approximate
09:08PM 52.9744 -20.4408 84° East  Level FlightAware Approximate
09:09PM 52.9882 -20.2075 84° East  Level FlightAware Approximate
09:10PM 53.0002 -19.9740 89° East  Level FlightAware Approximate
09:11PM 53.0017 -19.7395 89° East  Level FlightAware Approximate
09:12PM 53.0028 -19.5050 89° East  Level FlightAware Approximate
09:13PM 53.0033 -19.2705 90° East  Level FlightAware Approximate
09:14PM 53.0035 -19.0360 90° East  Level FlightAware Approximate
09:15PM 53.0032 -18.8015 90° East  Level FlightAware Approximate
09:16PM 53.0024 -18.5670 90° East  Level FlightAware Approximate
09:16PM 52.9560 -14.3040 90° East 532 612 37,000  Level FlightAware
09:17PM 53.0011 -18.3326 90° East  Level FlightAware Approximate
09:17PM 52.9520 -14.1650 93° East 532 612 37,000  Level FlightAware
09:18PM 52.9470 -13.9990 93° East 532 612 37,000  Level FlightAware
09:19PM 52.9430 -13.8740 93° East 532 612 37,000  Level FlightAware
09:19PM 52.9370 -13.7070 93° East 532 612 37,000  Level FlightAware
09:20PM 52.9320 -13.5480 93° East 532 612 37,000  Level FlightAware
09:21PM 52.9270 -13.3780 93° East 532 612 37,000  Level FlightAware
09:21PM 52.9230 -13.2600 93° East 532 612 37,000  Level FlightAware
09:22PM 52.9180 -13.0970 93° East 532 612 37,000  Level FlightAware
09:23PM 52.8870 -12.8010 100° East 514 592 37,000  Level FlightAware
09:24PM 52.8740 -12.5560 95° East 508 585 37,000  Level FlightAware
09:26PM 52.8499 -12.1646 96° East  Level FlightAware Approximate
09:26PM 52.8530 -12.1810 96° East 504 580 37,000  Level FlightAware
09:26PM 52.8420 -12.0040 96° East 504 580 37,000  Level FlightAware
09:27PM 52.8330 -11.8560 96° East 504 580 37,000  Level FlightAware
09:28PM 52.8240 -11.6990 95° East 507 583 37,000  Level FlightAware
09:28PM 52.8120 -11.5090 96° East 510 587 37,000  Level FlightAware
09:29PM 52.8020 -11.3550 96° East 509 586 37,000  Level FlightAware
09:30PM 52.7910 -11.1940 96° East 510 587 37,000  Level FlightAware
09:30PM 52.7810 -11.0360 96° East 511 588 37,000  Level FlightAware
09:31PM 52.7690 -10.8610 96° East 509 586 37,000  Level FlightAware
09:32PM 52.7580 -10.7080 97° East 507 583 37,000  Level FlightAware
09:32PM 52.7470 -10.5560 97° East 504 580 37,000  Level FlightAware
09:33PM 52.7350 -10.3840 97° East 501 577 37,000  Level FlightAware
09:34PM 52.7250 -10.2620 98° East 499 574 37,000  Level FlightAware
09:35PM 52.7120 -10.0880 97° East 499 574 37,000  Level FlightAware
09:35PM 52.7000 -9.9190 97° East 501 577 37,000  Level FlightAware
09:36PM 52.6870 -9.7600 98° East 498 573 37,000  Level FlightAware
09:37PM 52.6750 -9.6150 98° East 496 571 37,000  Level FlightAware
09:37PM 52.6610 -9.4410 97° East 495 570 37,000  Level FlightAware
09:38PM 52.6490 -9.2950 98° East 494 568 37,000  Level FlightAware
09:39PM 52.6350 -9.1250 98° East 496 571 37,000  Level FlightAware
09:39PM 52.6219 -8.9734 98° East 472 543 37,000  Level FlightAware UK
09:39PM 52.6220 -8.9760 98° East 495 570 37,000  Level FlightAware
09:40PM 52.6100 -8.8280 98° East 495 570 37,000  Level FlightAware
09:41PM 52.5960 -8.6760 98° East 491 565 37,000  Level FlightAware
09:41PM 52.5931 -8.6399 98° East 472 543 37,000  Level FlightAware UK
09:41PM 52.5832 -8.5289 98° East 466 536 37,000  Level FlightAware UK
09:42PM 52.5820 -8.5140 98° East 492 566 37,000  Level FlightAware
09:42PM 52.5660 -8.3420 99° East 493 567 37,000  Level FlightAware
09:43PM 52.5526 -8.1950 99° East 468 539 37,000  Level FlightAware UK
09:43PM 52.5530 -8.1960 99° East 494 568 37,000  Level FlightAware
09:44PM 52.5370 -8.0270 99° East 495 570 37,000  Level FlightAware
09:44PM 52.5240 -7.8900 99° East 491 565 37,000  Level FlightAware
09:44PM 52.5214 -7.8603 99° East 468 539 37,000  Level FlightAware UK
09:45PM 52.5106 -7.7498 99° East 472 543 37,000  Level FlightAware UK
09:45PM 52.5000 -7.6397 99° East 474 545 37,000  Level FlightAware UK
09:46PM 52.5000 -7.6430 99° East 491 565 37,000  Level FlightAware
09:46PM 52.4820 -7.4560 99° East 490 564 37,000  Level FlightAware
09:47PM 52.4676 -7.3095 99° East 472 543 37,000  Level FlightAware UK
09:47PM 52.4650 -7.2920 99° East 488 562 37,000  Level FlightAware
09:48PM 52.4520 -7.1570 99° East 483 556 37,000  Level FlightAware
09:48PM 52.4360 -7.0000 99° East 480 552 37,000  Level FlightAware
09:48PM 52.4345 -6.9856 99° East 476 548 37,000  Level FlightAware UK
09:49PM 52.4234 -6.8790 99° East 470 541 37,000  Level FlightAware UK
09:49PM 52.4190 -6.8390 99° East 476 548 37,000  Level FlightAware
09:50PM 52.4009 -6.6662 99° East 468 539 37,000  Level FlightAware UK
09:50PM 52.3950 -6.6100 99° East 479 551 37,000  Level FlightAware
09:51PM 52.3781 -6.4525 99° East 470 541 37,000  Level FlightAware UK
09:51PM 52.3790 -6.4630 99° East 481 554 37,000  Level FlightAware
09:51PM 52.3665 -6.3451 99° East 468 539 37,000  Level FlightAware UK
09:52PM 52.3630 -6.3170 99° East 483 556 37,000  Level FlightAware
09:52PM 52.3440 -6.1430 99° East 485 558 37,000  Level FlightAware
09:52PM 52.3426 -6.1288 99° East 468 539 37,000  Level FlightAware UK
09:53PM 52.3305 -6.0205 99° East 472 543 37,000  Level FlightAware UK
09:53PM 52.3280 -6.0030 99° East 485 558 37,000  Level FlightAware
09:54PM 52.3100 -5.8380 100° East 484 557 37,000  Level FlightAware
09:54PM 52.2930 -5.6950 100° East 486 559 37,000  Level FlightAware
09:55PM 52.2910 -5.6750 100° East 468 539 37,000  Level FlightAware UK
09:55PM 52.2784 -5.5667 100° East 468 539 37,000  Level FlightAware UK
09:55PM 52.2780 -5.5650 100° East 487 560 37,000  Level FlightAware
09:56PM 52.2580 -5.3940 101° East 487 560 37,000  Level FlightAware
09:57PM 52.2410 -5.2490 101° East 484 557 37,000  Level FlightAware
09:57PM 52.2380 -5.2214 101° East 472 543 37,000  Level FlightAware UK
09:57PM 52.2248 -5.1134 101° East 472 543 37,000  Level FlightAware UK
09:57PM 52.2230 -5.1010 101° East 483 556 37,000  Level FlightAware
09:58PM 52.2040 -4.9410 101° East 483 556 37,000  Level FlightAware
09:59PM 52.1861 -4.7929 101° East 476 548 37,000  Level FlightAware UK
09:59PM 52.1860 -4.7960 101° East 482 555 37,000  Level FlightAware
09:59PM 52.1727 -4.6851 101° East 472 543 37,000  Level FlightAware UK
09:59PM 52.1660 -4.6370 101° East 481 554 37,000  Level FlightAware
10:00PM 52.1459 -4.4724 101° East 474 545 37,000  Level FlightAware UK
10:00PM 52.1430 -4.4540 101° East 483 556 37,000  Level FlightAware
10:01PM 52.1250 -4.3110 102° East 482 555 37,000  Level FlightAware
10:02PM 52.1051 -4.1523 102° East 472 543 37,000  Level FlightAware UK
10:02PM 52.1012 -4.1223 102° East 479 551 37,000  Level FlightAware ADS-B
10:03PM 52.0824 -3.9789 102° East 477 549 37,000  Level FlightAware ADS-B
10:03PM 52.0675 -3.8659 102° East 475 547 37,000  Level FlightAware ADS-B
10:04PM 52.0499 -3.7326 102° East 474 545 37,000  Level FlightAware ADS-B
10:04PM 52.0334 -3.6092 102° East 468 539 37,000  Level FlightAware ADS-B
10:05PM 52.0185 -3.4990 102° East 467 537 37,000  Level FlightAware ADS-B
10:05PM 52.0042 -3.3934 102° East 467 537 37,000  Level FlightAware ADS-B
10:06PM 51.9878 -3.2722 102° East 470 541 37,000  Level FlightAware ADS-B
10:06PM 51.9727 -3.1632 103° East 472 543 37,000  Level FlightAware ADS-B
10:07PM 51.9573 -3.0536 103° East 474 545 37,000  Level FlightAware ADS-B
10:08PM 51.9426 -2.9481 103° East 474 545 37,000  Level FlightAware ADS-B
10:08PM 51.9279 -2.8440 103° East 474 545 37,000  Level FlightAware ADS-B
10:09PM 51.9131 -2.7394 103° East 472 543 37,000  Level FlightAware ADS-B
10:09PM 51.8981 -2.6344 103° East 471 542 37,000  Level FlightAware ADS-B
10:10PM 51.8829 -2.5283 103° East 471 542 37,000  Level FlightAware ADS-B
10:10PM 51.8678 -2.4240 103° East 473 544 37,000  Level FlightAware ADS-B
10:11PM 51.8526 -2.3200 103° East 474 545 37,000  Level FlightAware ADS-B
10:11PM 51.8372 -2.2155 103° East 474 545 37,000  Level FlightAware ADS-B
10:12PM 51.8218 -2.1110 103° East 472 543 37,000  Level FlightAware ADS-B
10:12PM 51.8064 -2.0075 103° East 470 541 37,000  Level FlightAware ADS-B
10:13PM 51.7909 -1.9036 104° East 469 540 37,000  Level FlightAware ADS-B
10:13PM 51.7752 -1.7998 104° East 470 541 37,000  Level FlightAware ADS-B
10:14PM 51.7598 -1.6978 104° East 471 542 37,000  Level FlightAware ADS-B
10:14PM 51.7440 -1.5948 104° East 471 542 37,000  Level FlightAware ADS-B
10:15PM 51.7272 -1.4858 104° East 471 542 37,000  Level FlightAware ADS-B
10:15PM 51.7115 -1.3829 104° East 471 542 37,000  Level FlightAware ADS-B
10:16PM 51.6955 -1.2809 104° East 472 543 37,000  Level FlightAware ADS-B
10:16PM 51.6792 -1.1774 104° East 473 544 37,000  Level FlightAware ADS-B
10:17PM 51.6630 -1.0746 104° East 475 547 37,000  Level FlightAware ADS-B
10:17PM 51.6466 -0.9712 104° East 475 547 37,000  Level FlightAware ADS-B
10:18PM 51.6299 -0.8675 105° East 475 547 37,000  Level FlightAware ADS-B
10:18PM 51.6134 -0.7642 104° East 475 547 37,000  Level FlightAware ADS-B
10:19PM 51.5967 -0.6616 105° East 474 545 37,000  Level FlightAware ADS-B
10:19PM 51.5803 -0.5592 104° East 473 544 37,000  Level FlightAware ADS-B
10:20PM 51.5635 -0.4566 105° East 472 543 37,000  Level FlightAware ADS-B
10:20PM 51.5466 -0.3534 105° East 471 542 37,000  Level FlightAware ADS-B
10:21PM 51.5290 -0.2491 105° East 470 541 37,000  Level FlightAware ADS-B
10:21PM 51.5124 -0.1482 105° East 469 540 37,000  Level FlightAware ADS-B
10:22PM 51.4949 -0.0450 105° East 469 540 37,000  Level FlightAware ADS-B
10:22PM 51.4781 0.0558 105° East 468 539 37,000  Level FlightAware ADS-B
10:23PM 51.4612 0.1565 105° East 467 537 37,000  Level FlightAware ADS-B
10:23PM 51.4437 0.2574 106° East 467 537 37,000  Level FlightAware ADS-B
10:24PM 51.4265 0.3573 105° East 466 536 37,000  Level FlightAware ADS-B
10:24PM 51.4093 0.4573 105° East 464 534 37,000  Level FlightAware ADS-B
10:25PM 51.3921 0.5571 105° East 463 533 37,000  Level FlightAware ADS-B
10:25PM 51.3745 0.6576 106° East 463 533 37,000  Level FlightAware ADS-B
10:26PM 51.3571 0.7565 106° East 463 533 37,000  Level FlightAware ADS-B
10:26PM 51.3398 0.8553 106° East 462 532 37,000  Level FlightAware ADS-B
10:27PM 51.3220 0.9548 106° East 461 531 37,000  Level FlightAware ADS-B
10:27PM 51.3043 1.0540 106° East 460 529 37,000  Level FlightAware ADS-B
10:28PM 51.2867 1.1529 106° East 459 528 37,000  Level FlightAware ADS-B
10:28PM 51.2688 1.2507 106° East 460 529 37,000  Level FlightAware ADS-B
10:29PM 51.2531 1.3516 104° East 462 532 37,000  Level FlightAware ADS-B
10:29PM 51.2383 1.4550 103° East 461 531 37,000  Level FlightAware ADS-B
10:30PM 51.2234 1.5559 103° East 459 528 37,000  Level FlightAware ADS-B
10:31PM 51.2031 1.6902 104° East 458 527 37,000  Level FlightAware ADS-B
10:31PM 51.1880 1.7890 104° East 459 528 37,000  Level FlightAware ADS-B
10:32PM 51.1727 1.8884 104° East 460 529 37,000  Level FlightAware ADS-B
10:32PM 51.1572 1.9880 104° East 463 533 37,000  Level FlightAware ADS-B
10:33PM 51.1414 2.0901 104° East 462 532 37,000  Level FlightAware ADS-B
10:33PM 51.1253 2.1921 104° East 461 531 37,000  Level FlightAware ADS-B
10:34PM 51.1098 2.2905 104° East 459 528 37,000  Level FlightAware ADS-B
10:34PM 51.0938 2.3911 104° East 459 528 37,000  Level FlightAware ADS-B
10:35PM 51.0780 2.4902 104° East 459 528 37,000  Level FlightAware ADS-B
10:35PM 51.0618 2.5905 104° East 459 528 37,000  Level FlightAware ADS-B
10:36PM 51.0441 2.6985 104° East 474 545 37,000  Level FlightAware UK
10:36PM 51.0448 2.6954 104° East 460 529 37,000  Level FlightAware ADS-B
10:36PM 51.0205 2.8445 104° East 459 528 37,000  Level FlightAware ADS-B
10:37PM 50.9968 2.9908 104° East 466 536 37,000  Level FlightAware UK
10:37PM 50.9880 3.0430 104° East 457 526 37,000  Level FlightAware
10:38PM 50.9642 3.1852 104° East 472 543 37,000  Level FlightAware UK
10:38PM 50.9650 3.1790 104° East 459 528 37,000  Level FlightAware
10:39PM 50.9478 3.2824 104° East 470 541 37,000  Level FlightAware UK
10:39PM 50.9410 3.3220 104° East 459 528 37,000  Level FlightAware
10:40PM 50.9180 3.4600 105° East 461 531 37,000  Level FlightAware
10:40PM 50.8990 3.5720 105° East 460 529 37,000  Level FlightAware
10:40PM 50.8950 3.5939 105° East 474 545 37,000  Level FlightAware UK
10:41PM 50.8782 3.6921 105° East 474 545 37,000  Level FlightAware UK
10:41PM 50.8730 3.7250 105° East 458 527 37,000  Level FlightAware
10:42PM 50.8480 3.8680 105° East 457 526 37,000  Level FlightAware
10:42PM 50.8449 3.8858 105° East 478 550 37,000  Level FlightAware UK
10:42PM 50.8284 3.9820 105° East 474 545 37,000  Level FlightAware UK
10:42PM 50.8260 3.9920 105° East 453 521 37,000  Level FlightAware
10:43PM 50.8020 4.1290 105° East 451 519 37,000  Level FlightAware
10:44PM 50.7777 4.2673 105° East 476 548 37,000  Level FlightAware UK
10:44PM 50.7770 4.2710 105° East 453 521 37,000  Level FlightAware
10:44PM 50.7560 4.3910 105° East 447 514 37,000  Level FlightAware
10:45PM 50.7430 4.4590 107° East 446 513 37,000  Level FlightAware
10:46PM 50.7114 4.6471 107° East 474 545 37,000  Level FlightAware UK
10:46PM 50.7100 4.6460 107° East 449 517 37,000  Level FlightAware
10:46PM 50.6930 4.7380 106° East 448 516 37,000  Level FlightAware
10:47PM 50.6680 4.8730 106° East 448 516 37,000  Level FlightAware
10:48PM 50.6460 4.9940 106° East 446 513 37,000 -180 Level FlightAware
10:48PM 50.6220 5.1230 106° East 444 511 36,800 -720 Descending FlightAware
10:49PM 50.5960 5.2620 106° East 443 510 36,000 -1,020 Descending FlightAware
10:50PM 50.5730 5.3860 106° East 435 501 35,400 -960 Descending FlightAware
10:50PM 50.5480 5.5130 107° East 438 504 34,700 -1,080 Descending FlightAware
10:51PM 50.5240 5.6390 107° East 436 502 33,900 -1,500 Descending FlightAware
10:52PM 50.5020 5.7530 107° East 426 490 32,700 -1,980 Descending FlightAware
10:53PM 50.4770 5.8870 106° East 418 481 31,200 -1,860 Descending FlightAware
10:53PM 50.4520 6.0130 107° East 399 459 30,000 -1,860 Descending FlightAware
10:54PM 50.4320 6.1170 107° East 391 450 28,600 -2,220 Descending FlightAware
10:55PM 50.4090 6.2340 107° East 384 442 27,000 -1,980 Descending FlightAware
10:55PM 50.3870 6.3430 108° East 369 425 25,900 -1,380 Descending FlightAware
10:56PM 50.3660 6.4470 108° East 353 406 25,100 -1,920 Descending FlightAware
10:57PM 50.3440 6.5590 107° East 365 420 23,200 -2,220 Descending FlightAware
10:57PM 50.3250 6.6540 107° East 358 412 22,100 -1,740 Descending FlightAware
10:58PM 50.3030 6.7640 107° East 353 406 20,800 -1,980 Descending FlightAware
10:59PM 50.2810 6.8670 108° East 358 412 19,200 -1,980 Descending FlightAware
11:00PM 50.2610 6.9680 107° East 351 404 18,100 -1,680 Descending FlightAware
11:00PM 50.2420 7.0590 108° East 351 404 17,000 -1,680 Descending FlightAware
11:01PM 50.2110 7.2100 108° East 340 391 15,300 -1,620 Descending FlightAware
11:02PM 50.1920 7.3000 108° East 334 384 14,300 -1,560 Descending FlightAware
11:03PM 50.1750 7.3820 108° East 333 383 13,400 -1,320 Descending FlightAware
11:03PM 50.1540 7.4820 108° East 328 377 12,500 -1,440 Descending FlightAware
11:04PM 50.1310 7.5910 108° East 326 375 11,200 -900 Descending FlightAware
11:05PM 50.1240 7.7170 95° East 328 377 11,000 -120 Descending FlightAware
11:06PM 50.1290 7.8380 86° East 329 379 11,000  Level FlightAware
11:07PM 50.1340 7.9920 87° East 269 310 11,000  Level FlightAware
11:08PM 50.1380 8.0710 85° East 270 311 11,000  Level FlightAware
11:08PM 50.1420 8.1550 86° East 271 312 11,000  Level FlightAware
11:09PM 50.1450 8.2320 86° East 274 315 11,000  Level FlightAware
11:10PM 50.1500 8.3530 86° East 276 318 11,000 -240 Level FlightAware
11:11PM 50.1550 8.4600 86° East 275 316 10,600 -660 Descending FlightAware
11:12PM 50.1660 8.5370 77° East 272 313 10,000 -900 Descending FlightAware
11:12PM 50.1710 8.5660 75° East 269 310 9,800 -1,260 Descending FlightAware
11:12PM 50.1820 8.6180 72° East 276 318 9,100 -1,200 Descending FlightAware
11:13PM 50.1930 8.6720 72° East 271 312 8,700 -840 Descending FlightAware
11:13PM 50.2010 8.7130 73° East 268 308 8,400 -960 Descending FlightAware
11:14PM 50.2110 8.7680 74° East 268 308 7,900 -1,200 Descending FlightAware
11:14PM 50.2220 8.8250 73° East 271 312 7,200 -1,260 Descending FlightAware
11:15PM 50.2310 8.8770 75° East 273 314 6,700 -960 Descending FlightAware
11:15PM 50.2370 8.9060 72° East 271 312 6,500 -840 Descending FlightAware
11:15PM 50.2450 8.9490 74° East 265 305 6,200 -600 Descending FlightAware
11:16PM 50.2560 9.0010 72° East 259 298 6,000 -300 Descending FlightAware
11:16PM 50.2570 9.0200 85° East 254 292 6,000  Level FlightAware
11:16PM 50.2520 9.0470 106° East 241 277 6,000  Level FlightAware
11:16PM 50.2420 9.0610 138° Southeast 233 268 6,000  Level FlightAware
11:17PM 50.2150 9.0790 157° South 226 260 6,000  Level FlightAware
11:17PM 50.2010 9.0780 183° South 218 251 6,000  Level FlightAware
11:17PM 50.1870 9.0640 213° Southwest 217 250 6,000 -600 Level FlightAware
11:18PM 50.1690 9.0350 226° Southwest 215 247 5,600 -660 Descending FlightAware
11:18PM 50.1550 8.9960 241° Southwest 196 226 5,400 -540 Descending FlightAware
11:19PM 50.1470 8.9630 249° West 180 207 5,100 -600 Descending FlightAware
11:19PM 50.1430 8.9450 251° West 172 198 5,000 -180 Descending FlightAware
11:20PM 50.1360 8.9120 252° West 171 197 5,000  Level FlightAware
11:20PM 50.1280 8.8790 249° West 173 199 5,000 -120 Level FlightAware
11:20PM 50.1200 8.8470 249° West 171 197 4,900 -660 Descending FlightAware
11:21PM 50.1130 8.8150 251° West 164 189 4,400 -1,080 Descending FlightAware
11:21PM 50.1060 8.7850 250° West 159 183 3,900 -1,020 Descending FlightAware
11:22PM 50.0980 8.7550 247° West 151 174 3,500 -780 Descending FlightAware
11:22PM 50.0930 8.7300 253° West 144 166 3,200 -840 Descending FlightAware
11:23PM 50.0870 8.7060 249° West 143 165 2,800 -1,020 Descending FlightAware
11:23PM 50.0800 8.6750 251° West 144 166 2,300 -900 Descending FlightAware
11:24PM 50.0730 8.6480 248° West 133 153 1,900 -720 Descending FlightAware
11:24PM 50.0700 8.6360 249° West 130 150 1,800 -600 Descending FlightAware
11:24PM 50.0640 8.6110 250° West 132 152 1,500 -720 Descending FlightAware
11:25PM 50.0610 8.5970 252° West 132 152 1,300 -780 Descending FlightAware
11:25PM 50.0530 8.5640 249° West 133 153 800 -840 Descending FlightAware
11:26PM 50.0460 8.5350 249° West 137 158 400 -780 Descending FlightAware
11:26PM 50.0440 8.5270 249° West 138 159 300 -480 Descending FlightAware
11:26PM 50.0400 8.5080 252° West 41 47 -720 Descending FlightAware
11:27PM 50.0390 8.5060 232° Southwest 33 38  Level FlightAware
11:27PM 50.0380 8.5030 243° Southwest 24 28  Level FlightAware
11:27PM 50.0370 8.5020 213° Southwest 30 35  Level FlightAware
11:28PM 50.0370 8.5040 90° East 28 32  Level FlightAware
11:29PM 50.0380 8.5080 69° East 18 21  Level FlightAware
11:29PM 50.0380 8.5120 90° East 19 22  Level FlightAware
11:29PM 50.0390 8.5150 63° Northeast 26 30  Level FlightAware
11:30PM 50.0410 8.5240 71° East 29 33  Level FlightAware
11:31PM 50.0420 8.5280 69° East 25 29  Level FlightAware
11:31PM 50.0440 8.5330 58° Northeast 21 24  Level FlightAware
11:32PM 50.0440 8.5370 90° East 16 18  Level FlightAware
11:32PM 50.0440 8.5390 90° East 15 17  Level FlightAware
11:32PM 50.0440 8.5420 90° East 17 20  Level FlightAware
11:33PM 50.0440 8.5450 90° East 20 23  Level FlightAware
11:33PM 50.0440 8.5470 90° East 23 26  Level FlightAware
11:33PM 50.0430 8.5480 147° Southeast 19 22  Level FlightAware
11:34PM 50.0400 8.5500 157° South 21 24  Level FlightAware
11:34PM 50.0400 8.5510 90° East 22 25  Level FlightAware
11:35PM 50.0410 8.5540 63° Northeast 34 39  Level FlightAware
11:35PM 50.0410 8.5550 90° East 16 18  Level FlightAware
11:36PM 50.0420 8.5590 69° East 32 37  Level FlightAware
11:36PM 50.0430 8.5600 33° Northeast 27 31  Level FlightAware
11:37PM 50.0440 8.5590 327° Northwest 24 28  Level FlightAware
11:37PM 50.0450 8.5600 33° Northeast 27 31  Level FlightAware
11:37PM 50.0460 8.5600 360° North 26 30  Level FlightAware
11:38PM 50.0460 8.5620 90° East  Level FlightAware
11:39PM 50.0470 8.5620 360° North 19 22  Level FlightAware
11:40PM 50.0470 8.5610 270° West 2 2  Level FlightAware
11:42PM 50.0167 8.5667 111° Southeast  Level FlightAware Approximate